createdAt,value
2018-03-20T00:02:47.001Z,19.59
2018-03-20T00:08:37.778Z,18.3
2018-03-20T00:14:28.554Z,19.18
2018-03-20T00:20:19.248Z,19.3
2018-03-20T00:26:10.028Z,19.92
2018-03-20T00:32:00.755Z,16.84
2018-03-20T00:37:51.507Z,13.74
2018-03-20T00:43:42.244Z,13.05
2018-03-20T00:49:33.005Z,13.35
2018-03-20T00:55:23.726Z,10.78
2018-03-20T01:01:14.464Z,11.36
2018-03-20T01:07:05.226Z,12.74
2018-03-20T01:12:55.965Z,14.54
2018-03-20T01:18:46.684Z,17.35
2018-03-20T01:24:37.444Z,15.21
2018-03-20T01:30:28.273Z,16.3
2018-03-20T01:36:18.924Z,19.43
2018-03-20T01:42:09.631Z,15.56
2018-03-20T01:48:00.393Z,12.18
2018-03-20T01:53:51.161Z,11.83
2018-03-20T01:59:41.871Z,10.85
2018-03-20T02:05:32.669Z,11.38
2018-03-20T02:11:23.381Z,14.31
2018-03-20T02:17:14.098Z,11.88
2018-03-20T02:23:04.867Z,12.55
2018-03-20T02:28:55.629Z,13.1
2018-03-20T02:34:46.311Z,12.79
2018-03-20T02:40:37.055Z,17.81
2018-03-20T02:46:27.834Z,18.34
2018-03-20T02:52:18.613Z,13.54
2018-03-20T02:58:09.301Z,16.48
2018-03-20T03:04:00.046Z,18.99
2018-03-20T03:09:50.749Z,15.34
2018-03-20T03:15:41.476Z,15.23
2018-03-20T03:21:32.260Z,12.5
2018-03-20T03:27:23.023Z,13.06
2018-03-20T03:33:13.714Z,13.13
2018-03-20T03:39:04.467Z,12.3
2018-03-20T03:44:55.196Z,9.94
2018-03-20T03:50:45.919Z,11.53
2018-03-20T03:56:36.664Z,11.39
2018-03-20T04:02:27.443Z,9.28
2018-03-20T04:08:18.136Z,8.87
2018-03-20T04:14:08.871Z,7.22
2018-03-20T04:19:59.640Z,7.79
2018-03-20T04:25:50.410Z,6.07
2018-03-20T04:31:41.092Z,6.36
2018-03-20T04:37:31.785Z,6.87
2018-03-20T04:43:22.511Z,9.15
2018-03-20T04:49:13.258Z,7.64
2018-03-20T04:55:04.031Z,11.79
2018-03-20T05:00:54.742Z,11.5
2018-03-20T05:06:45.415Z,6.7
2018-03-20T05:12:36.191Z,9.14
2018-03-20T05:18:26.920Z,10.3
2018-03-20T05:24:17.658Z,7.7
2018-03-20T05:30:08.389Z,9.94
2018-03-20T05:35:59.127Z,9.96
2018-03-20T05:41:49.860Z,8.91
2018-03-20T05:47:40.576Z,9.6
2018-03-20T05:53:31.291Z,10.01
2018-03-20T05:59:22.055Z,8.17
2018-03-20T06:05:12.744Z,8.65
2018-03-20T06:11:03.526Z,10.02
2018-03-20T06:16:54.220Z,12.84
2018-03-20T06:22:44.939Z,21.63
2018-03-20T06:28:35.660Z,19.28
2018-03-20T06:34:26.372Z,20.5
2018-03-20T06:40:17.192Z,18.71
2018-03-20T06:46:07.919Z,21.89
2018-03-20T06:51:58.649Z,24.33
2018-03-20T06:57:49.339Z,26.12
2018-03-20T07:03:40.093Z,41.51
2018-03-20T07:09:30.823Z,32.22
2018-03-20T07:15:21.578Z,118.16
2018-03-20T07:21:12.311Z,73.18
2018-03-20T07:27:03.071Z,22.91
2018-03-20T07:32:53.775Z,14.4
2018-03-20T07:38:44.528Z,5.55
2018-03-20T07:44:35.258Z,3.9
2018-03-20T07:50:26.013Z,2.66
2018-03-20T07:56:16.812Z,2.03
2018-03-20T08:02:07.607Z,1.73
2018-03-20T08:07:58.306Z,1.84
2018-03-20T08:13:49.134Z,1.8
2018-03-20T08:19:39.837Z,1.55
2018-03-20T08:25:30.622Z,1.37
2018-03-20T08:31:21.362Z,1.51
2018-03-20T08:37:12.157Z,1.84
2018-03-20T08:43:02.946Z,1.59
2018-03-20T08:48:53.742Z,1.52
2018-03-20T08:54:44.483Z,1.77
2018-03-20T09:00:35.316Z,1.64
2018-03-20T09:06:26.122Z,1.72
2018-03-20T09:12:16.906Z,1.38
2018-03-20T09:18:07.952Z,1.56
2018-03-20T09:23:58.500Z,1.62
2018-03-20T09:29:49.350Z,1.69
2018-03-20T09:35:40.152Z,1.65
2018-03-20T09:41:30.963Z,1.62
2018-03-20T09:47:21.801Z,1.61
2018-03-20T09:53:12.674Z,1.38
2018-03-20T09:59:03.456Z,1.4
2018-03-20T10:04:54.296Z,1.57
2018-03-20T10:10:45.099Z,1.3
2018-03-20T10:16:35.873Z,1.3
2018-03-20T10:22:26.663Z,1.35
2018-03-20T10:28:17.493Z,1.34
2018-03-20T10:34:08.305Z,1.5
2018-03-20T10:39:59.084Z,1.28
2018-03-20T10:45:49.901Z,1.37
2018-03-20T10:51:40.720Z,1.37
2018-03-20T10:57:31.555Z,1.59
2018-03-20T11:03:22.348Z,1.45
2018-03-20T11:09:13.135Z,1.64
2018-03-20T11:15:03.963Z,1.75
2018-03-20T11:20:54.768Z,2.14
2018-03-20T11:26:45.578Z,2.33
2018-03-20T11:32:36.379Z,2.21
2018-03-20T11:38:27.173Z,2.05
2018-03-20T11:44:18.027Z,2.99
2018-03-20T11:50:08.864Z,3.33
2018-03-20T11:55:59.555Z,3.04
2018-03-20T12:01:50.357Z,3.27
2018-03-20T12:07:41.162Z,3.21
2018-03-20T12:13:31.972Z,3.15
2018-03-20T12:19:22.780Z,2.4
2018-03-20T12:25:13.560Z,3.46
2018-03-20T12:31:04.426Z,4.1
2018-03-20T12:36:55.181Z,3.91
2018-03-20T12:42:45.966Z,3.47
2018-03-20T12:48:36.758Z,3.47
2018-03-20T12:54:27.552Z,3.74
2018-03-20T13:00:18.362Z,3.63
2018-03-20T13:06:09.144Z,2.89
2018-03-20T13:11:59.952Z,2.78
2018-03-20T13:17:50.692Z,4.04
2018-03-20T13:23:41.510Z,3.55
2018-03-20T13:29:32.340Z,3.31
2018-03-20T13:35:23.080Z,3.54
2018-03-20T13:41:13.886Z,2.91
2018-03-20T13:47:04.711Z,16.62
2018-03-20T13:52:55.447Z,6.62
2018-03-20T13:58:46.269Z,5.75
2018-03-20T14:04:37.102Z,4.26
2018-03-20T14:10:27.831Z,3.05
2018-03-20T14:16:18.663Z,2.67
2018-03-20T14:22:09.380Z,8.1
2018-03-20T14:28:00.182Z,2.77
2018-03-20T14:33:50.945Z,3.91
2018-03-20T14:39:41.852Z,2.7
2018-03-20T14:45:32.531Z,2.22
2018-03-20T14:51:23.291Z,2.54
2018-03-20T14:57:14.103Z,2.42
2018-03-20T15:03:04.895Z,2.85
2018-03-20T15:08:55.634Z,2.87
2018-03-20T15:14:46.430Z,2.03
2018-03-20T15:20:37.194Z,3.37
2018-03-20T15:26:27.979Z,3.54
2018-03-20T15:32:18.720Z,3.17
2018-03-20T15:38:09.497Z,1.97
2018-03-20T15:44:00.276Z,5.14
2018-03-20T15:49:51.028Z,2.8
2018-03-20T15:55:41.811Z,4.71
2018-03-20T16:01:32.590Z,3.79
2018-03-20T16:07:23.317Z,3.04
2018-03-20T16:13:14.095Z,3.41
2018-03-20T16:19:04.858Z,2.42
2018-03-20T16:24:55.667Z,3.49
2018-03-20T16:30:46.396Z,2.69
2018-03-20T16:36:37.186Z,4.43
2018-03-20T16:42:27.907Z,7.41
2018-03-20T16:48:18.703Z,6.52
2018-03-20T16:54:09.484Z,6.15
2018-03-20T17:00:00.232Z,2.76
2018-03-20T17:05:51.040Z,6.15
2018-03-20T17:11:41.745Z,3.21
2018-03-20T17:17:32.600Z,5.39
2018-03-20T17:23:23.280Z,5.43
2018-03-20T17:29:14.082Z,31.19
2018-03-20T17:35:04.850Z,84.86
2018-03-20T17:40:55.594Z,12
2018-03-20T17:46:46.364Z,10.84
2018-03-20T17:52:37.186Z,3.43
2018-03-20T17:58:27.880Z,4.54
2018-03-20T18:04:18.674Z,6.31
2018-03-20T18:10:09.410Z,7.57
2018-03-20T18:16:00.165Z,7.57
2018-03-20T18:21:50.917Z,11.95
2018-03-20T18:27:41.740Z,17.3
2018-03-20T18:33:32.490Z,7.24
2018-03-20T18:39:23.252Z,5.08
2018-03-20T18:45:13.999Z,4.35
2018-03-20T18:51:04.726Z,13.5
2018-03-20T18:56:55.551Z,5
2018-03-20T19:02:46.249Z,4.01
2018-03-20T19:08:37.014Z,2.85
2018-03-20T19:14:27.793Z,4.91
2018-03-20T19:20:18.571Z,6.05
2018-03-20T19:26:09.281Z,6.86
2018-03-20T19:32:00.104Z,3.77
2018-03-20T19:37:50.825Z,2.53
2018-03-20T19:43:41.600Z,1.62
2018-03-20T19:49:32.398Z,3.29
2018-03-20T19:55:23.118Z,2.67
2018-03-20T20:01:13.857Z,3.72
2018-03-20T20:07:04.639Z,1.2
2018-03-20T20:12:55.367Z,1.41
2018-03-20T20:18:46.172Z,1.23
2018-03-20T20:24:36.882Z,2.36
2018-03-20T20:30:27.690Z,1.42
2018-03-20T20:36:18.424Z,1.42
2018-03-20T20:42:09.222Z,0.84
2018-03-20T20:47:59.947Z,0.8
2018-03-20T20:53:50.663Z,0.76
2018-03-20T20:59:41.452Z,0.65
2018-03-20T21:05:32.177Z,1.08
2018-03-20T21:11:22.954Z,0.86
2018-03-20T21:17:13.676Z,0.78
2018-03-20T21:23:04.448Z,0.68
2018-03-20T21:28:55.204Z,0.56
2018-03-20T21:34:45.963Z,0.67
2018-03-20T21:40:36.722Z,0.5
2018-03-20T21:46:27.521Z,0.71
2018-03-20T21:52:18.213Z,1.06
2018-03-20T21:58:08.963Z,1.44
2018-03-20T22:03:59.742Z,1.25
2018-03-20T22:09:50.525Z,1.08
2018-03-20T22:15:41.250Z,1.3
2018-03-20T22:21:32.013Z,1.56
2018-03-20T22:27:22.762Z,1.21
2018-03-20T22:33:13.512Z,0.93
2018-03-20T22:39:04.272Z,1.03
2018-03-20T22:44:54.997Z,1.41
2018-03-20T22:50:45.767Z,1.19
2018-03-20T22:56:36.537Z,0.84
2018-03-20T23:02:27.297Z,0.89
2018-03-20T23:08:18.074Z,0.91
2018-03-20T23:14:08.816Z,0.79
2018-03-20T23:19:59.566Z,1
2018-03-20T23:25:50.283Z,0.76
2018-03-20T23:31:41.019Z,1.01
2018-03-20T23:37:31.836Z,0.9
2018-03-20T23:43:22.482Z,1
2018-03-20T23:49:13.274Z,0.98
2018-03-20T23:55:04.053Z,1.11
